Main page
METAR-TAF:

METAR-TAF

Airports :

Volgograd International Airport

Volgograd, Russia

latitude: 48-47N, longitude: 044-22E, elevation: 145 m

Current weather observation

The report was made 29 minutes ago, at 14:00 UTC
Wind 10 kt from the East
Temperature 0°C
Humidity 26%
Pressure 1034 hPa
Visibility 10 km or more
no clouds below 1500 m and no cumulonimbus

METAR: URWW 141400Z 10005MPS CAVOK M00/M17 Q1034 R06/010070 NOSIG

Time: 17:29 (14:29 UTC)

Forecast

The report was made 3 hours and 29 minutes ago, at 11:00 UTC
Forecast valid from 14 at 12 UTC to 14 at 21 UTC
Wind 14 kt from the East with gusts up to 23 kt
Visibility 10 km or more
Broken clouds at a height of 2000 ft
Temporary
from 14 at 12 UTC to 14 at 21 UTC
Wind 17 kt from the East/Southeast with gusts up to 27 kt

TAF: URWW 141100Z 1412/1421 09007G12MPS 9999 BKN020 TEMPO 1412/1421 12009G14MPS

Weather observations and forecasts of more than 4000 airports (METAR and TAF reports).

The available stations are represented by yellow and red dots on the map.

Hover mouse over dot to see the name of the station.

Then click to see weather observations and forecasts.

To change the map : click on the green buttons with a black cross to zoom in, on the green button with a dash to zoom out, or on the green arrows for adjacent maps.


METAR-TAF: